Terminal Aerodrome Forecast
Issued by NWS

Home | Current Version | Previous Version | Text Only | Print | Product List | Glossary On
Versions: 1 2 3 4 5 6 7 8 9 10 11 12 13 14 15 16 17 18 19
000
FTUS41 KGYX 211613 AAC
TAFRKD
TAF AMD
KRKD 211613Z 2116/2212 18009KT P6SM BKN005 BKN050
      TEMPO 2116/2117 5SM BR OVC015
     FM211800 19010KT 5SM BR OVC005
     FM220100 VRB03KT 1SM BR OVC004
      AMD LTD TO CLD VIS AND WIND=

USA.gov is the U.S. government's official web portal to all federal, state and local government web resources and services.